createdAt,value
2018-06-18T08:57:54.017Z,0
2018-06-18T08:58:05.150Z,42366
2018-06-18T08:58:16.051Z,140327
2018-06-18T08:58:27.120Z,139715
2018-06-18T08:58:38.097Z,140049
2018-06-18T08:58:51.944Z,42395
2018-06-18T08:59:02.875Z,42099
2018-06-18T08:59:13.739Z,41238
2018-06-18T08:59:24.681Z,41664
2018-06-18T08:59:35.656Z,41298
2018-06-18T08:59:47.697Z,41265
2018-06-18T08:59:58.714Z,41402
2018-06-18T09:00:12.627Z,41549
2018-06-18T09:00:23.640Z,42004
2018-06-18T09:00:37.478Z,139776
2018-06-18T09:00:48.520Z,141111
2018-06-18T09:00:59.515Z,140449
2018-06-18T09:01:10.481Z,43822
2018-06-18T09:01:28.020Z,44649
2018-06-18T09:01:39.020Z,45215
2018-06-18T09:01:50.004Z,45052
2018-06-18T09:02:01.009Z,45109
2018-06-18T09:02:11.993Z,45042
2018-06-18T09:02:22.994Z,44824
2018-06-18T09:02:33.995Z,45541
2018-06-18T09:02:44.946Z,45333
2018-06-18T09:02:55.830Z,44911
2018-06-18T09:03:06.823Z,44534
2018-06-18T09:03:17.899Z,44343
2018-06-18T09:03:28.854Z,44010
2018-06-18T09:03:39.797Z,140795
2018-06-18T09:03:50.792Z,43390
2018-06-18T09:04:01.758Z,42103
2018-06-18T09:04:12.698Z,43184
2018-06-18T09:04:23.668Z,41590
2018-06-18T09:04:34.676Z,139098
2018-06-18T09:04:46.253Z,138561
2018-06-18T09:04:57.234Z,138017
2018-06-18T09:05:11.060Z,40570
2018-06-18T09:05:22.167Z,39732
2018-06-18T09:05:33.093Z,39327
2018-06-18T09:05:47.029Z,39013
2018-06-18T09:05:58.012Z,39315
2018-06-18T09:06:08.965Z,38923
2018-06-18T09:06:20.001Z,38686
2018-06-18T09:06:30.989Z,38421
2018-06-18T09:06:42.024Z,38146
2018-06-18T09:06:53.036Z,37598
2018-06-18T09:07:06.897Z,37037
2018-06-18T09:07:20.753Z,36571
2018-06-18T09:07:31.717Z,36404
2018-06-18T09:07:42.572Z,36348
2018-06-18T09:08:00.494Z,36178
2018-06-18T09:08:11.471Z,36063
2018-06-18T09:08:22.506Z,37364
2018-06-18T09:08:33.494Z,37163
2018-06-18T09:08:44.691Z,37281
2018-06-18T09:08:55.707Z,37558
2018-06-18T09:09:07.145Z,37856
2018-06-18T09:09:18.424Z,37844
2018-06-18T09:09:30.388Z,38366
2018-06-18T09:09:43.356Z,135408
2018-06-18T09:09:54.363Z,135163
2018-06-18T09:10:06.307Z,37751
2018-06-18T09:10:17.410Z,38170
2018-06-18T09:10:28.505Z,37044
2018-06-18T09:10:40.453Z,36714
2018-06-18T09:10:54.553Z,36899
2018-06-18T09:11:05.835Z,38152
2018-06-18T09:11:16.912Z,37936
2018-06-18T09:11:28.633Z,136093
2018-06-18T09:11:39.831Z,136440
2018-06-18T09:11:50.914Z,136899
2018-06-18T09:12:04.838Z,137327
2018-06-18T09:12:15.842Z,137653
2018-06-18T09:12:27.011Z,137975
2018-06-18T09:12:38.301Z,138385
2018-06-18T09:12:52.605Z,138792
2018-06-18T09:13:06.950Z,139245
2018-06-18T09:13:22.743Z,139656
2018-06-18T09:13:44.138Z,140151
